Weather Center

VHHH METAR :
VHHH 081100Z 15013KT 9999 FEW013 30/24 Q1003 NOSIG

VHHH TAF :
VHHH 080500Z 0806/0912 VRB05KT 9999 FEW015 TX33/0806Z TX34/0906Z TN29/0822Z
TEMPO 0806/0809 24010KT
TEMPO 0809/0817 14010KT
TEMPO 0902/0909 24010KT

VMMC METAR :
VMMCH

VMMC TAF :
VMMC 080500Z 0806/0912 12008KT 9999 FEW015

Comments are closed